Terminal Aerodrome Forecast
Issued by NWS

Home | Current Version | Previous Version | Graphics & Text | Print | Product List | Glossary On
Versions: 1 2 3 4 5 6 7 8 9 10 11 12 13 14 15 16 17 18 19 20 21 22 23 24 25
000
FTUS43 KLOT 191120
TAFGYY
TAF
KGYY 191120Z 1912/2012 25007KT P6SM BKN300
     FM191500 32005KT P6SM SCT250
     FM191800 04005KT P6SM FEW250
     FM200200 14004KT P6SM FEW250=

USA.gov is the U.S. government's official web portal to all federal, state and local government web resources and services.